sensor_id;sensor_type;location;lat;lon;timestamp;pressure;altitude;pressure_sealevel;temperature;humidity
65800;BME280;52544;48.116;11.660;2023-04-28T00:02:13;95606.28;;;7.89;100.00
65800;BME280;52544;48.116;11.660;2023-04-28T00:04:38;95606.19;;;7.91;100.00
65800;BME280;52544;48.116;11.660;2023-04-28T00:07:03;95605.94;;;7.83;100.00
65800;BME280;52544;48.116;11.660;2023-04-28T00:09:29;95607.59;;;7.84;100.00
65800;BME280;52544;48.116;11.660;2023-04-28T00:11:54;95607.59;;;7.84;100.00
65800;BME280;52544;48.116;11.660;2023-04-28T00:14:20;95607.47;;;7.85;100.00
65800;BME280;52544;48.116;11.660;2023-04-28T00:16:45;95602.22;;;7.85;100.00
65800;BME280;52544;48.116;11.660;2023-04-28T00:19:11;95598.53;;;7.88;100.00
65800;BME280;52544;48.116;11.660;2023-04-28T00:21:36;95603.56;;;7.91;100.00
65800;BME280;52544;48.116;11.660;2023-04-28T00:24:01;95594.44;;;7.84;100.00
65800;BME280;52544;48.116;11.660;2023-04-28T00:26:27;95598.03;;;7.83;100.00
65800;BME280;52544;48.116;11.660;2023-04-28T00:28:52;95593.72;;;7.82;100.00
65800;BME280;52544;48.116;11.660;2023-04-28T00:31:18;95589.38;;;7.81;100.00
65800;BME280;52544;48.116;11.660;2023-04-28T00:33:43;95583.28;;;7.80;100.00
65800;BME280;52544;48.116;11.660;2023-04-28T00:36:09;95596.56;;;7.79;100.00
65800;BME280;52544;48.116;11.660;2023-04-28T00:38:36;95585.81;;;7.82;100.00
65800;BME280;52544;48.116;11.660;2023-04-28T00:41:02;95575.03;;;7.85;100.00
65800;BME280;52544;48.116;11.660;2023-04-28T00:43:27;95571.69;;;7.83;100.00
65800;BME280;52544;48.116;11.660;2023-04-28T00:45:53;95573.81;;;7.78;100.00
65800;BME280;52544;48.116;11.660;2023-04-28T00:48:18;95574.41;;;7.81;100.00
65800;BME280;52544;48.116;11.660;2023-04-28T00:50:45;95574.06;;;7.86;100.00
65800;BME280;52544;48.116;11.660;2023-04-28T00:53:11;95576.69;;;7.86;100.00
65800;BME280;52544;48.116;11.660;2023-04-28T00:55:37;95569.53;;;7.88;100.00
65800;BME280;52544;48.116;11.660;2023-04-28T00:58:04;95573.22;;;7.85;100.00
65800;BME280;52544;48.116;11.660;2023-04-28T01:00:30;95571.56;;;7.84;100.00
65800;BME280;52544;48.116;11.660;2023-04-28T01:02:56;95574.31;;;7.83;100.00
65800;BME280;52544;48.116;11.660;2023-04-28T01:05:24;95569.75;;;7.85;100.00
65800;BME280;52544;48.116;11.660;2023-04-28T01:07:49;95572.16;;;7.88;100.00
65800;BME280;52544;48.116;11.660;2023-04-28T01:10:15;95566.56;;;7.92;100.00
65800;BME280;52544;48.116;11.660;2023-04-28T01:12:40;95564.97;;;7.90;100.00
65800;BME280;52544;48.116;11.660;2023-04-28T01:15:14;95564.03;;;7.91;100.00
65800;BME280;52544;48.116;11.660;2023-04-28T01:17:39;95560.44;;;7.92;100.00
65800;BME280;52544;48.116;11.660;2023-04-28T01:20:05;95564.03;;;7.91;100.00
65800;BME280;52544;48.116;11.660;2023-04-28T01:22:31;95553.50;;;7.91;100.00
65800;BME280;52544;48.116;11.660;2023-04-28T01:24:56;95543.78;;;7.91;100.00
65800;BME280;52544;48.116;11.660;2023-04-28T01:27:24;95547.72;;;7.86;100.00
65800;BME280;52544;48.116;11.660;2023-04-28T01:29:50;95543.19;;;7.88;100.00
65800;BME280;52544;48.116;11.660;2023-04-28T01:32:15;95548.59;;;7.86;100.00
65800;BME280;52544;48.116;11.660;2023-04-28T01:34:40;95540.56;;;7.88;100.00
65800;BME280;52544;48.116;11.660;2023-04-28T01:37:06;95542.97;;;7.91;100.00
65800;BME280;52544;48.116;11.660;2023-04-28T01:39:31;95533.34;;;7.90;100.00
65800;BME280;52544;48.116;11.660;2023-04-28T01:41:56;95537.69;;;7.91;100.00
65800;BME280;52544;48.116;11.660;2023-04-28T01:44:22;95538.53;;;7.91;100.00
65800;BME280;52544;48.116;11.660;2023-04-28T01:46:47;95535.91;;;7.91;100.00
65800;BME280;52544;48.116;11.660;2023-04-28T01:49:13;95530.00;;;7.88;100.00
65800;BME280;52544;48.116;11.660;2023-04-28T01:51:38;95525.69;;;7.87;100.00
65800;BME280;52544;48.116;11.660;2023-04-28T01:54:04;95533.97;;;7.93;100.00
65800;BME280;52544;48.116;11.660;2023-04-28T01:56:30;95539.13;;;7.95;100.00
65800;BME280;52544;48.116;11.660;2023-04-28T01:58:56;95542.44;;;7.86;100.00
65800;BME280;52544;48.116;11.660;2023-04-28T02:01:21;95538.75;;;7.88;100.00
65800;BME280;52544;48.116;11.660;2023-04-28T02:03:46;95535.31;;;7.99;100.00
65800;BME280;52544;48.116;11.660;2023-04-28T02:06:13;95534.34;;;8.00;100.00
65800;BME280;52544;48.116;11.660;2023-04-28T02:08:38;95534.34;;;8.00;100.00
65800;BME280;52544;48.116;11.660;2023-04-28T02:11:04;95533.53;;;7.99;100.00
65800;BME280;52544;48.116;11.660;2023-04-28T02:13:29;95535.31;;;7.99;100.00
65800;BME280;52544;48.116;11.660;2023-04-28T02:15:54;95539.72;;;7.98;100.00
65800;BME280;52544;48.116;11.660;2023-04-28T02:18:20;95546.09;;;7.96;100.00
65800;BME280;52544;48.116;11.660;2023-04-28T02:20:45;95547.53;;;8.00;100.00
65800;BME280;52544;48.116;11.660;2023-04-28T02:23:11;95548.97;;;8.04;100.00
65800;BME280;52544;48.116;11.660;2023-04-28T02:25:36;95543.72;;;8.04;100.00
65800;BME280;52544;48.116;11.660;2023-04-28T02:28:01;95539.75;;;8.10;100.00
65800;BME280;52544;48.116;11.660;2023-04-28T02:30:27;95550.16;;;8.00;100.00
65800;BME280;52544;48.116;11.660;2023-04-28T02:32:52;95554.81;;;7.96;100.00
65800;BME280;52544;48.116;11.660;2023-04-28T02:35:18;95559.84;;;7.88;100.00
65800;BME280;52544;48.116;11.660;2023-04-28T02:37:43;95560.72;;;8.00;100.00
65800;BME280;52544;48.116;11.660;2023-04-28T02:40:09;95549.69;;;8.06;100.00
65800;BME280;52544;48.116;11.660;2023-04-28T02:42:35;95532.94;;;8.07;100.00
65800;BME280;52544;48.116;11.660;2023-04-28T02:45:00;95527.06;;;8.04;100.00
65800;BME280;52544;48.116;11.660;2023-04-28T02:47:26;95531.25;;;8.06;100.00
65800;BME280;52544;48.116;11.660;2023-04-28T02:49:51;95522.97;;;8.11;100.00
65800;BME280;52544;48.116;11.660;2023-04-28T02:52:16;95534.22;;;8.01;100.00
65800;BME280;52544;48.116;11.660;2023-04-28T02:54:42;95533.78;;;8.08;100.00
65800;BME280;52544;48.116;11.660;2023-04-28T02:57:08;95539.16;;;8.06;100.00
65800;BME280;52544;48.116;11.660;2023-04-28T02:59:33;95521.31;;;8.10;100.00
65800;BME280;52544;48.116;11.660;2023-04-28T03:01:59;95514.13;;;8.12;100.00
65800;BME280;52544;48.116;11.660;2023-04-28T03:04:25;95511.59;;;8.10;100.00
65800;BME280;52544;48.116;11.660;2023-04-28T03:06:51;95503.69;;;8.10;100.00
65800;BME280;52544;48.116;11.660;2023-04-28T03:09:17;95494.13;;;8.09;100.00
65800;BME280;52544;48.116;11.660;2023-04-28T03:11:42;95482.97;;;8.06;100.00
65800;BME280;52544;48.116;11.660;2023-04-28T03:14:07;95491.84;;;8.05;100.00
65800;BME280;52544;48.116;11.660;2023-04-28T03:16:33;95490.25;;;8.02;100.00
65800;BME280;52544;48.116;11.660;2023-04-28T03:18:58;95492.91;;;8.02;100.00
65800;BME280;52544;48.116;11.660;2023-04-28T03:21:24;95492.06;;;8.01;100.00
65800;BME280;52544;48.116;11.660;2023-04-28T03:23:52;95499.25;;;7.99;100.00
65800;BME280;52544;48.116;11.660;2023-04-28T03:26:18;95494.81;;;8.00;100.00
65800;BME280;52544;48.116;11.660;2023-04-28T03:28:43;95502.50;;;8.03;100.00
65800;BME280;52544;48.116;11.660;2023-04-28T03:31:09;95503.81;;;8.09;100.00
65800;BME280;52544;48.116;11.660;2023-04-28T03:33:34;95503.69;;;8.10;100.00
65800;BME280;52544;48.116;11.660;2023-04-28T03:36:00;95496.75;;;8.09;100.00
65800;BME280;52544;48.116;11.660;2023-04-28T03:38:25;95504.44;;;8.12;100.00
65800;BME280;52544;48.116;11.660;2023-04-28T03:40:51;95512.34;;;8.12;100.00
65800;BME280;52544;48.116;11.660;2023-04-28T03:43:16;95502.03;;;8.09;100.00
65800;BME280;52544;48.116;11.660;2023-04-28T03:45:42;95497.22;;;8.14;100.00
65800;BME280;52544;48.116;11.660;2023-04-28T03:48:07;95486.06;;;8.11;100.00
65800;BME280;52544;48.116;11.660;2023-04-28T03:50:32;95495.31;;;8.16;100.00
65800;BME280;52544;48.116;11.660;2023-04-28T03:52:58;95494.22;;;8.19;100.00
65800;BME280;52544;48.116;11.660;2023-04-28T03:55:23;95502.03;;;8.20;100.00
65800;BME280;52544;48.116;11.660;2023-04-28T03:57:50;95506.22;;;8.23;100.00
65800;BME280;52544;48.116;11.660;2023-04-28T04:00:16;95497.47;;;8.22;100.00
65800;BME280;52544;48.116;11.660;2023-04-28T04:02:41;95502.03;;;8.20;100.00
65800;BME280;52544;48.116;11.660;2023-04-28T04:05:07;95504.56;;;8.22;100.00
65800;BME280;52544;48.116;11.660;2023-04-28T04:07:32;95499.41;;;8.20;100.00
65800;BME280;52544;48.116;11.660;2023-04-28T04:09:57;95503.59;;;8.23;100.00
65800;BME280;52544;48.116;11.660;2023-04-28T04:12:23;95496.50;;;8.23;100.00
65800;BME280;52544;48.116;11.660;2023-04-28T04:14:48;95499.66;;;8.29;100.00
65800;BME280;52544;48.116;11.660;2023-04-28T04:17:14;95496.66;;;8.33;100.00
65800;BME280;52544;48.116;11.660;2023-04-28T04:19:40;95494.53;;;8.38;100.00
65800;BME280;52544;48.116;11.660;2023-04-28T04:22:05;95502.09;;;8.43;100.00
65800;BME280;52544;48.116;11.660;2023-04-28T04:24:31;95498.47;;;8.44;100.00
65800;BME280;52544;48.116;11.660;2023-04-28T04:26:56;95495.97;;;8.42;100.00
65800;BME280;52544;48.116;11.660;2023-04-28T04:29:21;95487.94;;;8.44;100.00
65800;BME280;52544;48.116;11.660;2023-04-28T04:31:47;95477.16;;;8.47;100.00
65800;BME280;52544;48.116;11.660;2023-04-28T04:34:13;95477.38;;;8.44;100.00
65800;BME280;52544;48.116;11.660;2023-04-28T04:36:39;95473.19;;;8.41;100.00
65800;BME280;52544;48.116;11.660;2023-04-28T04:39:04;95465.41;;;8.40;100.00
65800;BME280;52544;48.116;11.660;2023-04-28T04:41:29;95480.25;;;8.41;100.00
65800;BME280;52544;48.116;11.660;2023-04-28T04:43:55;95491.75;;;8.40;100.00
65800;BME280;52544;48.116;11.660;2023-04-28T04:46:20;95488.91;;;8.43;100.00
65800;BME280;52544;48.116;11.660;2023-04-28T04:48:46;95494.41;;;8.51;100.00
65800;BME280;52544;48.116;11.660;2023-04-28T04:51:12;95488.63;;;8.57;100.00
65800;BME280;52544;48.116;11.660;2023-04-28T04:53:37;95492.00;;;8.59;100.00
65800;BME280;52544;48.116;11.660;2023-04-28T04:56:03;95493.44;;;8.63;100.00
65800;BME280;52544;48.116;11.660;2023-04-28T04:58:29;95488.78;;;8.67;100.00
65800;BME280;52544;48.116;11.660;2023-04-28T05:00:54;95482.41;;;8.69;100.00
65800;BME280;52544;48.116;11.660;2023-04-28T05:03:20;95477.84;;;8.71;100.00
65800;BME280;52544;48.116;11.660;2023-04-28T05:05:46;95486.59;;;8.72;100.00
65800;BME280;52544;48.116;11.660;2023-04-28T05:08:12;95496.91;;;8.75;100.00
65800;BME280;52544;48.116;11.660;2023-04-28T05:10:37;95500.97;;;8.79;100.00
65800;BME280;52544;48.116;11.660;2023-04-28T05:13:03;95508.53;;;8.72;100.00
65800;BME280;52544;48.116;11.660;2023-04-28T05:15:28;95509.38;;;8.73;100.00
65800;BME280;52544;48.116;11.660;2023-04-28T05:17:55;95509.38;;;8.73;100.00
65800;BME280;52544;48.116;11.660;2023-04-28T05:20:20;95505.66;;;8.75;100.00
65800;BME280;52544;48.116;11.660;2023-04-28T05:22:46;95508.03;;;8.79;100.00
65800;BME280;52544;48.116;11.660;2023-04-28T05:25:11;95520.53;;;8.76;100.00
65800;BME280;52544;48.116;11.660;2023-04-28T05:27:36;95518.25;;;8.72;100.00
65800;BME280;52544;48.116;11.660;2023-04-28T05:30:05;95514.53;;;8.74;100.00
65800;BME280;52544;48.116;11.660;2023-04-28T05:32:30;95514.75;;;8.83;100.00
65800;BME280;52544;48.116;11.660;2023-04-28T05:34:56;95520.63;;;8.86;100.00
65800;BME280;52544;48.116;11.660;2023-04-28T05:37:21;95520.88;;;8.83;100.00
65800;BME280;52544;48.116;11.660;2023-04-28T05:39:46;95519.31;;;8.81;100.00
65800;BME280;52544;48.116;11.660;2023-04-28T05:42:12;95523.31;;;8.75;100.00
65800;BME280;52544;48.116;11.660;2023-04-28T05:44:37;95516.56;;;8.82;100.00
65800;BME280;52544;48.116;11.660;2023-04-28T05:47:02;95511.88;;;8.86;100.00
65800;BME280;52544;48.116;11.660;2023-04-28T05:49:28;95510.91;;;8.87;100.00
65800;BME280;52544;48.116;11.660;2023-04-28T05:51:53;95515.34;;;8.86;100.00
65800;BME280;52544;48.116;11.660;2023-04-28T05:54:19;95512.34;;;8.91;100.00
65800;BME280;52544;48.116;11.660;2023-04-28T05:56:44;95502.38;;;8.94;100.00
65800;BME280;52544;48.116;11.660;2023-04-28T05:59:09;95505.88;;;8.95;100.00
65800;BME280;52544;48.116;11.660;2023-04-28T06:01:35;95507.53;;;8.96;100.00
65800;BME280;52544;48.116;11.660;2023-04-28T06:04:00;95504.66;;;8.99;100.00
65800;BME280;52544;48.116;11.660;2023-04-28T06:06:26;95503.69;;;9.00;100.00
65800;BME280;52544;48.116;11.660;2023-04-28T06:08:52;95514.97;;;9.02;100.00
65800;BME280;52544;48.116;11.660;2023-04-28T06:11:17;95528.41;;;9.10;100.00
65800;BME280;52544;48.116;11.660;2023-04-28T06:13:47;95534.66;;;9.09;100.00
65800;BME280;52544;48.116;11.660;2023-04-28T06:16:12;95536.31;;;9.10;100.00
65800;BME280;52544;48.116;11.660;2023-04-28T06:18:37;95529.00;;;9.14;100.00
65800;BME280;52544;48.116;11.660;2023-04-28T06:21:03;95519.28;;;9.14;100.00
65800;BME280;52544;48.116;11.660;2023-04-28T06:23:28;95514.81;;;9.15;100.00
65800;BME280;52544;48.116;11.660;2023-04-28T06:25:54;95518.16;;;9.17;100.00
65800;BME280;52544;48.116;11.660;2023-04-28T06:28:19;95517.78;;;9.21;100.00
65800;BME280;52544;48.116;11.660;2023-04-28T06:30:44;95517.56;;;9.24;100.00
65800;BME280;52544;48.116;11.660;2023-04-28T06:33:10;95520.66;;;9.30;100.00
65800;BME280;52544;48.116;11.660;2023-04-28T06:35:35;95514.44;;;9.31;100.00
65800;BME280;52544;48.116;11.660;2023-04-28T06:38:03;95506.38;;;9.32;100.00
65800;BME280;52544;48.116;11.660;2023-04-28T06:40:28;95505.41;;;9.33;100.00
65800;BME280;52544;48.116;11.660;2023-04-28T06:42:54;95501.44;;;9.39;100.00
65800;BME280;52544;48.116;11.660;2023-04-28T06:45:19;95502.00;;;9.42;100.00
65800;BME280;52544;48.116;11.660;2023-04-28T06:47:45;95498.97;;;9.47;100.00
65800;BME280;52544;48.116;11.660;2023-04-28T06:50:10;95494.44;;;9.49;100.00
65800;BME280;52544;48.116;11.660;2023-04-28T06:52:36;95487.78;;;9.55;100.00
65800;BME280;52544;48.116;11.660;2023-04-28T06:55:07;95476.25;;;9.56;100.00
65800;BME280;52544;48.116;11.660;2023-04-28T06:57:33;95482.00;;;9.61;100.00
65800;BME280;52544;48.116;11.660;2023-04-28T06:59:59;95474.41;;;9.67;100.00
65800;BME280;52544;48.116;11.660;2023-04-28T07:02:24;95478.06;;;9.76;100.00
65800;BME280;52544;48.116;11.660;2023-04-28T07:04:50;95479.59;;;9.90;100.00
65800;BME280;52544;48.116;11.660;2023-04-28T07:07:15;95482.13;;;10.01;100.00
65800;BME280;52544;48.116;11.660;2023-04-28T07:09:41;95476.63;;;10.14;100.00
65800;BME280;52544;48.116;11.660;2023-04-28T07:12:06;95476.81;;;10.22;100.00
65800;BME280;52544;48.116;11.660;2023-04-28T07:14:32;95478.84;;;10.30;100.00
65800;BME280;52544;48.116;11.660;2023-04-28T07:16:58;95480.69;;;10.39;100.00
65800;BME280;52544;48.116;11.660;2023-04-28T07:19:23;95478.22;;;10.47;100.00
65800;BME280;52544;48.116;11.660;2023-04-28T07:21:48;95476.75;;;10.54;100.00
65800;BME280;52544;48.116;11.660;2023-04-28T07:24:14;95472.06;;;10.67;100.00
65800;BME280;52544;48.116;11.660;2023-04-28T07:26:39;95464.13;;;10.77;100.00
65800;BME280;52544;48.116;11.660;2023-04-28T07:29:05;95465.28;;;10.84;100.00
65800;BME280;52544;48.116;11.660;2023-04-28T07:31:30;95464.16;;;10.87;100.00
65800;BME280;52544;48.116;11.660;2023-04-28T07:33:56;95455.53;;;10.94;100.00
65800;BME280;52544;48.116;11.660;2023-04-28T07:36:21;95464.72;;;11.00;100.00
65800;BME280;52544;48.116;11.660;2023-04-28T07:38:46;95461.13;;;11.01;100.00
65800;BME280;52544;48.116;11.660;2023-04-28T07:41:12;95464.47;;;11.03;100.00
65800;BME280;52544;48.116;11.660;2023-04-28T07:43:38;95467.00;;;11.05;100.00
65800;BME280;52544;48.116;11.660;2023-04-28T07:46:05;95456.81;;;11.10;100.00
65800;BME280;52544;48.116;11.660;2023-04-28T07:48:31;95454.75;;;11.13;100.00
65800;BME280;52544;48.116;11.660;2023-04-28T07:50:56;95467.44;;;11.19;100.00
65800;BME280;52544;48.116;11.660;2023-04-28T07:53:22;95460.72;;;11.15;100.00
65800;BME280;52544;48.116;11.660;2023-04-28T07:55:47;95460.03;;;11.13;100.00
65800;BME280;52544;48.116;11.660;2023-04-28T07:58:13;95468.66;;;11.15;100.00
65800;BME280;52544;48.116;11.660;2023-04-28T08:00:38;95472.47;;;11.22;100.00
65800;BME280;52544;48.116;11.660;2023-04-28T08:03:03;95469.50;;;11.25;100.00
65800;BME280;52544;48.116;11.660;2023-04-28T08:05:29;95470.78;;;11.21;100.00
65800;BME280;52544;48.116;11.660;2023-04-28T08:07:54;95471.31;;;11.25;100.00
65800;BME280;52544;48.116;11.660;2023-04-28T08:10:20;95471.22;;;11.26;100.00
65800;BME280;52544;48.116;11.660;2023-04-28T08:12:45;95474.81;;;11.25;100.00
65800;BME280;52544;48.116;11.660;2023-04-28T08:15:11;95476.91;;;11.32;100.00
65800;BME280;52544;48.116;11.660;2023-04-28T08:17:36;95466.19;;;11.33;100.00
65800;BME280;52544;48.116;11.660;2023-04-28T08:20:02;95465.34;;;11.33;100.00
65800;BME280;52544;48.116;11.660;2023-04-28T08:22:28;95469.53;;;11.35;100.00
65800;BME280;52544;48.116;11.660;2023-04-28T08:24:53;95469.13;;;11.30;100.00
65800;BME280;52544;48.116;11.660;2023-04-28T08:27:19;95461.19;;;11.30;100.00
65800;BME280;52544;48.116;11.660;2023-04-28T08:29:44;95467.31;;;11.31;100.00
65800;BME280;52544;48.116;11.660;2023-04-28T08:32:09;95465.34;;;11.33;100.00
65800;BME280;52544;48.116;11.660;2023-04-28T08:34:35;95459.78;;;11.36;100.00
65800;BME280;52544;48.116;11.660;2023-04-28T08:37:01;95460.63;;;11.26;100.00
65800;BME280;52544;48.116;11.660;2023-04-28T08:39:26;95456.69;;;11.21;100.00
65800;BME280;52544;48.116;11.660;2023-04-28T08:41:52;95450.56;;;11.20;100.00
65800;BME280;52544;48.116;11.660;2023-04-28T08:44:18;95445.56;;;11.17;100.00
65800;BME280;52544;48.116;11.660;2023-04-28T08:46:45;95445.09;;;11.12;100.00
65800;BME280;52544;48.116;11.660;2023-04-28T08:49:17;95436.19;;;11.13;100.00
65800;BME280;52544;48.116;11.660;2023-04-28T08:51:49;95441.63;;;11.12;100.00
65800;BME280;52544;48.116;11.660;2023-04-28T08:54:15;95433.09;;;11.08;100.00
65800;BME280;52544;48.116;11.660;2023-04-28T08:56:41;95441.19;;;11.07;100.00
65800;BME280;52544;48.116;11.660;2023-04-28T08:59:10;95439.28;;;11.09;100.00
65800;BME280;52544;48.116;11.660;2023-04-28T09:01:35;95434.91;;;11.08;100.00
65800;BME280;52544;48.116;11.660;2023-04-28T09:04:01;95431.31;;;11.09;100.00
65800;BME280;52544;48.116;11.660;2023-04-28T09:06:35;95434.50;;;11.12;100.00
65800;BME280;52544;48.116;11.660;2023-04-28T09:11:55;95431.31;;;11.18;100.00
65800;BME280;52544;48.116;11.660;2023-04-28T09:14:22;95434.66;;;11.20;100.00
65800;BME280;52544;48.116;11.660;2023-04-28T09:16:48;95428.00;;;11.26;100.00
65800;BME280;52544;48.116;11.660;2023-04-28T09:19:14;95431.88;;;11.32;100.00
65800;BME280;52544;48.116;11.660;2023-04-28T09:21:55;95423.66;;;11.35;100.00
65800;BME280;52544;48.116;11.660;2023-04-28T09:24:38;95426.56;;;11.41;100.00
65800;BME280;52544;48.116;11.660;2023-04-28T09:27:06;95423.25;;;11.39;100.00
65800;BME280;52544;48.116;11.660;2023-04-28T09:29:35;95416.56;;;11.35;100.00
65800;BME280;52544;48.116;11.660;2023-04-28T09:32:15;95420.19;;;11.44;100.00
65800;BME280;52544;48.116;11.660;2023-04-28T09:34:47;95418.78;;;11.40;100.00
65800;BME280;52544;48.116;11.660;2023-04-28T09:37:21;95421.69;;;11.37;100.00
65800;BME280;52544;48.116;11.660;2023-04-28T09:39:48;95419.63;;;11.31;100.00
65800;BME280;52544;48.116;11.660;2023-04-28T09:45:06;95430.75;;;11.24;100.00
65800;BME280;52544;48.116;11.660;2023-04-28T09:47:34;95423.94;;;11.32;100.00
65800;BME280;52544;48.116;11.660;2023-04-28T09:50:02;95420.72;;;11.28;100.00
65800;BME280;52544;48.116;11.660;2023-04-28T09:52:28;95420.72;;;11.18;100.00
65800;BME280;52544;48.116;11.660;2023-04-28T09:54:55;95410.97;;;11.09;100.00
65800;BME280;52544;48.116;11.660;2023-04-28T09:57:21;95418.47;;;11.04;100.00
65800;BME280;52544;48.116;11.660;2023-04-28T09:59:49;95412.75;;;10.99;100.00
65800;BME280;52544;48.116;11.660;2023-04-28T10:02:16;95412.06;;;10.97;100.00
65800;BME280;52544;48.116;11.660;2023-04-28T10:04:46;95410.53;;;10.94;100.00
65800;BME280;52544;48.116;11.660;2023-04-28T10:07:13;95402.56;;;10.94;100.00
65800;BME280;52544;48.116;11.660;2023-04-28T10:09:40;95398.13;;;10.95;100.00
65800;BME280;52544;48.116;11.660;2023-04-28T10:12:10;95402.47;;;10.96;100.00
65800;BME280;52544;48.116;11.660;2023-04-28T10:14:36;95414.31;;;11.01;100.00
65800;BME280;52544;48.116;11.660;2023-04-28T10:17:03;95403.16;;;10.98;100.00
65800;BME280;52544;48.116;11.660;2023-04-28T10:19:29;95401.19;;;11.00;100.00
65800;BME280;52544;48.116;11.660;2023-04-28T10:27:41;95397.56;;;10.91;100.00
65800;BME280;52544;48.116;11.660;2023-04-28T10:30:12;95396.88;;;10.89;100.00
65800;BME280;52544;48.116;11.660;2023-04-28T10:32:38;95391.72;;;10.88;100.00
65800;BME280;52544;48.116;11.660;2023-04-28T10:43:01;95392.69;;;10.96;100.00
65800;BME280;52544;48.116;11.660;2023-04-28T10:48:22;95391.88;;;10.96;100.00
65800;BME280;52544;48.116;11.660;2023-04-28T10:58:42;95385.44;;;10.98;100.00
65800;BME280;52544;48.116;11.660;2023-04-28T11:06:37;95385.03;;;11.03;100.00
65800;BME280;52544;48.116;11.660;2023-04-28T11:11:42;95387.69;;;11.03;100.00
65800;BME280;52544;48.116;11.660;2023-04-28T11:16:58;95393.94;;;11.02;100.00
65800;BME280;52544;48.116;11.660;2023-04-28T11:21:55;95394.78;;;11.02;100.00
65800;BME280;52544;48.116;11.660;2023-04-28T11:24:25;95385.03;;;11.03;100.00
65800;BME280;52544;48.116;11.660;2023-04-28T11:26:51;95400.22;;;11.01;100.00
65800;BME280;52544;48.116;11.660;2023-04-28T11:29:17;95399.94;;;11.04;100.00
65800;BME280;52544;48.116;11.660;2023-04-28T11:31:50;95403.97;;;11.08;100.00
65800;BME280;52544;48.116;11.660;2023-04-28T11:34:19;95398.69;;;11.08;100.00
65800;BME280;52544;48.116;11.660;2023-04-28T11:36:48;95400.38;;;11.09;100.00
65800;BME280;52544;48.116;11.660;2023-04-28T11:39:13;95407.34;;;11.10;100.00
65800;BME280;52544;48.116;11.660;2023-04-28T11:41:42;95395.91;;;11.10;100.00
65800;BME280;52544;48.116;11.660;2023-04-28T11:44:21;95389.78;;;11.09;100.00
65800;BME280;52544;48.116;11.660;2023-04-28T11:49:23;95388.78;;;11.20;100.00
65800;BME280;52544;48.116;11.660;2023-04-28T11:51:49;95398.97;;;11.24;100.00
65800;BME280;52544;48.116;11.660;2023-04-28T11:54:35;95397.44;;;11.32;100.00
65800;BME280;52544;48.116;11.660;2023-04-28T11:57:01;95391.16;;;11.33;100.00
65800;BME280;52544;48.116;11.660;2023-04-28T11:59:31;95396.59;;;11.41;100.00
65800;BME280;52544;48.116;11.660;2023-04-28T12:02:08;95390.88;;;11.45;100.00
65800;BME280;52544;48.116;11.660;2023-04-28T12:04:35;95391.44;;;11.49;100.00
65800;BME280;52544;48.116;11.660;2023-04-28T12:09:48;95395.88;;;11.58;100.00
65800;BME280;52544;48.116;11.660;2023-04-28T12:12:34;95393.09;;;11.60;100.00
65800;BME280;52544;48.116;11.660;2023-04-28T12:15:01;95399.09;;;11.62;100.00
65800;BME280;52544;48.116;11.660;2023-04-28T12:17:33;95387.66;;;11.61;100.00
65800;BME280;52544;48.116;11.660;2023-04-28T12:20:01;95393.22;;;11.68;100.00
65800;BME280;52544;48.116;11.660;2023-04-28T12:22:27;95400.88;;;11.71;100.00
65800;BME280;52544;48.116;11.660;2023-04-28T12:25:07;95395.59;;;11.71;100.00
65800;BME280;52544;48.116;11.660;2023-04-28T12:27:37;95393.50;;;11.74;100.00
65800;BME280;52544;48.116;11.660;2023-04-28T12:32:45;95396.84;;;11.86;100.00
65800;BME280;52544;48.116;11.660;2023-04-28T12:35:10;95402.00;;;11.88;100.00
65800;BME280;52544;48.116;11.660;2023-04-28T12:37:36;95406.72;;;12.04;100.00
65800;BME280;52544;48.116;11.660;2023-04-28T12:40:06;95404.72;;;12.06;100.00
65800;BME280;52544;48.116;11.660;2023-04-28T12:42:32;95408.06;;;12.17;100.00
65800;BME280;52544;48.116;11.660;2023-04-28T12:44:57;95406.38;;;12.16;100.00
65800;BME280;52544;48.116;11.660;2023-04-28T12:47:23;95415.63;;;12.12;100.00
65800;BME280;52544;48.116;11.660;2023-04-28T12:49:49;95405.69;;;12.14;100.00
65800;BME280;52544;48.116;11.660;2023-04-28T12:52:18;95408.34;;;12.14;100.00
65800;BME280;52544;48.116;11.660;2023-04-28T12:54:43;95409.03;;;12.16;100.00
65800;BME280;52544;48.116;11.660;2023-04-28T12:57:12;95410.31;;;12.12;100.00
65800;BME280;52544;48.116;11.660;2023-04-28T12:59:38;95413.25;;;12.09;100.00
65800;BME280;52544;48.116;11.660;2023-04-28T13:02:04;95410.47;;;12.11;100.00
65800;BME280;52544;48.116;11.660;2023-04-28T13:04:29;95410.75;;;12.08;100.00
65800;BME280;52544;48.116;11.660;2023-04-28T13:06:56;95409.75;;;12.09;100.00
65800;BME280;52544;48.116;11.660;2023-04-28T13:09:23;95416.19;;;12.06;100.00
65800;BME280;52544;48.116;11.660;2023-04-28T13:11:49;95408.09;;;12.08;100.00
65800;BME280;52544;48.116;11.660;2023-04-28T13:14:14;95402.09;;;12.06;100.00
65800;BME280;52544;48.116;11.660;2023-04-28T13:16:40;95398.31;;;12.08;100.00
65800;BME280;52544;48.116;11.660;2023-04-28T13:19:05;95395.06;;;12.14;100.00
65800;BME280;52544;48.116;11.660;2023-04-28T13:21:35;95393.13;;;12.16;100.00
65800;BME280;52544;48.116;11.660;2023-04-28T13:24:01;95384.88;;;12.19;100.00
65800;BME280;52544;48.116;11.660;2023-04-28T13:26:27;95380.38;;;12.30;100.00
65800;BME280;52544;48.116;11.660;2023-04-28T13:28:53;95375.31;;;12.36;100.00
65800;BME280;52544;48.116;11.660;2023-04-28T13:31:18;95382.84;;;12.41;100.00
65800;BME280;52544;48.116;11.660;2023-04-28T13:33:44;95380.28;;;12.49;100.00